sensor_id;sensor_type;location;lat;lon;timestamp;P1;durP1;ratioP1;P2;durP2;ratioP2
40286;SDS011;25998;46.604;13.610;2022-07-15T00:00:13;5.30;;;3.42;;
40286;SDS011;25998;46.604;13.610;2022-07-15T00:03:25;5.80;;;3.83;;
40286;SDS011;25998;46.604;13.610;2022-07-15T00:06:36;5.90;;;3.78;;
40286;SDS011;25998;46.604;13.610;2022-07-15T00:09:46;3.65;;;3.35;;
40286;SDS011;25998;46.604;13.610;2022-07-15T00:13:16;6.88;;;3.70;;
40286;SDS011;25998;46.604;13.610;2022-07-15T00:16:27;4.43;;;3.70;;
40286;SDS011;25998;46.604;13.610;2022-07-15T00:19:38;4.82;;;3.83;;
40286;SDS011;25998;46.604;13.610;2022-07-15T00:22:49;4.13;;;3.72;;
40286;SDS011;25998;46.604;13.610;2022-07-15T00:26:00;5.28;;;3.85;;
40286;SDS011;25998;46.604;13.610;2022-07-15T00:29:11;3.92;;;3.53;;
40286;SDS011;25998;46.604;13.610;2022-07-15T00:32:22;4.05;;;3.55;;
40286;SDS011;25998;46.604;13.610;2022-07-15T00:35:33;5.00;;;3.50;;
40286;SDS011;25998;46.604;13.610;2022-07-15T00:38:45;5.72;;;4.15;;
40286;SDS011;25998;46.604;13.610;2022-07-15T00:41:56;4.93;;;3.95;;
40286;SDS011;25998;46.604;13.610;2022-07-15T00:45:09;5.70;;;3.67;;
40286;SDS011;25998;46.604;13.610;2022-07-15T00:48:24;4.90;;;4.05;;
40286;SDS011;25998;46.604;13.610;2022-07-15T00:51:42;4.15;;;3.75;;
40286;SDS011;25998;46.604;13.610;2022-07-15T00:54:54;3.85;;;3.53;;
40286;SDS011;25998;46.604;13.610;2022-07-15T00:58:10;3.88;;;3.58;;
40286;SDS011;25998;46.604;13.610;2022-07-15T01:01:25;4.57;;;3.88;;
40286;SDS011;25998;46.604;13.610;2022-07-15T01:04:36;4.82;;;4.32;;
40286;SDS011;25998;46.604;13.610;2022-07-15T01:07:49;5.63;;;4.15;;
40286;SDS011;25998;46.604;13.610;2022-07-15T01:11:01;7.40;;;4.20;;
40286;SDS011;25998;46.604;13.610;2022-07-15T01:14:12;4.80;;;4.20;;
40286;SDS011;25998;46.604;13.610;2022-07-15T01:17:24;5.25;;;4.75;;
40286;SDS011;25998;46.604;13.610;2022-07-15T01:20:39;4.93;;;4.00;;
40286;SDS011;25998;46.604;13.610;2022-07-15T01:23:50;4.65;;;4.15;;
40286;SDS011;25998;46.604;13.610;2022-07-15T01:27:04;4.70;;;4.30;;
40286;SDS011;25998;46.604;13.610;2022-07-15T01:30:15;4.25;;;3.83;;
40286;SDS011;25998;46.604;13.610;2022-07-15T01:33:26;8.30;;;4.60;;
40286;SDS011;25998;46.604;13.610;2022-07-15T01:36:37;5.18;;;4.68;;
40286;SDS011;25998;46.604;13.610;2022-07-15T01:39:48;5.35;;;4.47;;
40286;SDS011;25998;46.604;13.610;2022-07-15T01:42:59;6.28;;;4.97;;
40286;SDS011;25998;46.604;13.610;2022-07-15T01:46:10;5.10;;;4.22;;
40286;SDS011;25998;46.604;13.610;2022-07-15T01:49:21;7.40;;;4.80;;
40286;SDS011;25998;46.604;13.610;2022-07-15T01:52:31;6.32;;;4.38;;
40286;SDS011;25998;46.604;13.610;2022-07-15T01:55:42;6.18;;;4.72;;
40286;SDS011;25998;46.604;13.610;2022-07-15T01:58:53;5.57;;;4.35;;
40286;SDS011;25998;46.604;13.610;2022-07-15T02:02:04;8.18;;;5.22;;
40286;SDS011;25998;46.604;13.610;2022-07-15T02:05:15;6.07;;;4.90;;
40286;SDS011;25998;46.604;13.610;2022-07-15T02:08:26;5.30;;;4.68;;
40286;SDS011;25998;46.604;13.610;2022-07-15T02:11:36;5.47;;;4.97;;
40286;SDS011;25998;46.604;13.610;2022-07-15T02:14:47;5.50;;;4.95;;
40286;SDS011;25998;46.604;13.610;2022-07-15T02:17:59;5.47;;;4.32;;
40286;SDS011;25998;46.604;13.610;2022-07-15T02:21:10;5.50;;;5.00;;
40286;SDS011;25998;46.604;13.610;2022-07-15T02:24:21;6.15;;;5.55;;
40286;SDS011;25998;46.604;13.610;2022-07-15T02:27:32;6.40;;;5.40;;
40286;SDS011;25998;46.604;13.610;2022-07-15T02:30:43;5.70;;;4.70;;
40286;SDS011;25998;46.604;13.610;2022-07-15T02:33:54;6.10;;;4.93;;
40286;SDS011;25998;46.604;13.610;2022-07-15T02:37:05;8.02;;;5.07;;
40286;SDS011;25998;46.604;13.610;2022-07-15T02:40:16;5.75;;;5.25;;
40286;SDS011;25998;46.604;13.610;2022-07-15T02:43:27;5.35;;;4.65;;
40286;SDS011;25998;46.604;13.610;2022-07-15T02:46:38;5.43;;;4.90;;
40286;SDS011;25998;46.604;13.610;2022-07-15T02:49:49;6.68;;;5.97;;
40286;SDS011;25998;46.604;13.610;2022-07-15T02:53:00;6.13;;;5.15;;
40286;SDS011;25998;46.604;13.610;2022-07-15T02:56:13;6.32;;;5.10;;
40286;SDS011;25998;46.604;13.610;2022-07-15T02:59:23;6.03;;;5.43;;
40286;SDS011;25998;46.604;13.610;2022-07-15T03:02:34;5.57;;;4.95;;
40286;SDS011;25998;46.604;13.610;2022-07-15T03:05:45;7.38;;;5.20;;
40286;SDS011;25998;46.604;13.610;2022-07-15T03:08:56;7.05;;;5.53;;
40286;SDS011;25998;46.604;13.610;2022-07-15T03:12:07;7.60;;;5.43;;
40286;SDS011;25998;46.604;13.610;2022-07-15T03:15:18;8.55;;;6.00;;
40286;SDS011;25998;46.604;13.610;2022-07-15T03:18:29;6.20;;;5.70;;
40286;SDS011;25998;46.604;13.610;2022-07-15T03:21:42;7.18;;;5.47;;
40286;SDS011;25998;46.604;13.610;2022-07-15T03:24:53;8.48;;;5.60;;
40286;SDS011;25998;46.604;13.610;2022-07-15T03:28:04;7.95;;;6.20;;
40286;SDS011;25998;46.604;13.610;2022-07-15T03:31:15;10.05;;;6.40;;
40286;SDS011;25998;46.604;13.610;2022-07-15T03:34:26;6.32;;;5.65;;
40286;SDS011;25998;46.604;13.610;2022-07-15T03:37:38;11.52;;;6.45;;
40286;SDS011;25998;46.604;13.610;2022-07-15T03:40:48;7.68;;;5.80;;
40286;SDS011;25998;46.604;13.610;2022-07-15T03:44:00;15.32;;;6.57;;
40286;SDS011;25998;46.604;13.610;2022-07-15T03:47:12;7.80;;;6.10;;
40286;SDS011;25998;46.604;13.610;2022-07-15T03:50:23;9.60;;;5.55;;
40286;SDS011;25998;46.604;13.610;2022-07-15T03:53:34;8.77;;;6.18;;
40286;SDS011;25998;46.604;13.610;2022-07-15T03:56:45;7.13;;;5.93;;
40286;SDS011;25998;46.604;13.610;2022-07-15T03:59:57;8.80;;;5.90;;
40286;SDS011;25998;46.604;13.610;2022-07-15T04:03:08;7.88;;;6.13;;
40286;SDS011;25998;46.604;13.610;2022-07-15T04:06:20;8.38;;;6.03;;
40286;SDS011;25998;46.604;13.610;2022-07-15T04:09:32;7.70;;;5.90;;
40286;SDS011;25998;46.604;13.610;2022-07-15T04:12:42;8.02;;;6.65;;
40286;SDS011;25998;46.604;13.610;2022-07-15T04:15:53;6.45;;;5.50;;
40286;SDS011;25998;46.604;13.610;2022-07-15T04:19:04;13.25;;;7.05;;
40286;SDS011;25998;46.604;13.610;2022-07-15T04:22:15;9.85;;;6.32;;
40286;SDS011;25998;46.604;13.610;2022-07-15T04:25:26;10.13;;;6.13;;
40286;SDS011;25998;46.604;13.610;2022-07-15T04:28:37;8.93;;;6.22;;
40286;SDS011;25998;46.604;13.610;2022-07-15T04:31:48;9.27;;;6.00;;
40286;SDS011;25998;46.604;13.610;2022-07-15T04:34:59;10.90;;;6.68;;
40286;SDS011;25998;46.604;13.610;2022-07-15T04:38:10;16.67;;;6.97;;
40286;SDS011;25998;46.604;13.610;2022-07-15T04:41:21;11.43;;;6.75;;
40286;SDS011;25998;46.604;13.610;2022-07-15T04:44:32;10.98;;;7.35;;
40286;SDS011;25998;46.604;13.610;2022-07-15T04:47:42;14.38;;;7.80;;
40286;SDS011;25998;46.604;13.610;2022-07-15T04:50:53;21.08;;;8.15;;
40286;SDS011;25998;46.604;13.610;2022-07-15T04:54:08;22.67;;;9.70;;
40286;SDS011;25998;46.604;13.610;2022-07-15T04:57:20;31.67;;;9.48;;
40286;SDS011;25998;46.604;13.610;2022-07-15T05:00:31;34.80;;;12.65;;
40286;SDS011;25998;46.604;13.610;2022-07-15T05:03:41;32.40;;;12.27;;
40286;SDS011;25998;46.604;13.610;2022-07-15T05:06:52;31.83;;;11.65;;
40286;SDS011;25998;46.604;13.610;2022-07-15T05:10:04;26.40;;;9.48;;
40286;SDS011;25998;46.604;13.610;2022-07-15T05:13:15;27.00;;;9.43;;
40286;SDS011;25998;46.604;13.610;2022-07-15T05:16:27;20.75;;;8.27;;
40286;SDS011;25998;46.604;13.610;2022-07-15T05:19:37;17.98;;;7.75;;
40286;SDS011;25998;46.604;13.610;2022-07-15T05:22:48;15.95;;;7.93;;
40286;SDS011;25998;46.604;13.610;2022-07-15T05:25:59;18.40;;;8.60;;
40286;SDS011;25998;46.604;13.610;2022-07-15T05:29:11;17.67;;;8.55;;
40286;SDS011;25998;46.604;13.610;2022-07-15T05:32:23;9.63;;;7.30;;
40286;SDS011;25998;46.604;13.610;2022-07-15T05:35:33;11.20;;;7.68;;
40286;SDS011;25998;46.604;13.610;2022-07-15T05:38:44;21.77;;;8.48;;
40286;SDS011;25998;46.604;13.610;2022-07-15T05:41:55;15.25;;;8.20;;
40286;SDS011;25998;46.604;13.610;2022-07-15T05:45:08;12.75;;;8.20;;
40286;SDS011;25998;46.604;13.610;2022-07-15T05:48:20;17.05;;;8.13;;
40286;SDS011;25998;46.604;13.610;2022-07-15T05:51:30;21.73;;;8.82;;
40286;SDS011;25998;46.604;13.610;2022-07-15T05:54:41;26.45;;;8.25;;
40286;SDS011;25998;46.604;13.610;2022-07-15T05:57:53;16.25;;;7.15;;
40286;SDS011;25998;46.604;13.610;2022-07-15T06:01:04;10.68;;;7.13;;
40286;SDS011;25998;46.604;13.610;2022-07-15T06:04:15;17.83;;;8.15;;
40286;SDS011;25998;46.604;13.610;2022-07-15T06:07:26;17.15;;;7.82;;
40286;SDS011;25998;46.604;13.610;2022-07-15T06:10:37;13.82;;;7.75;;
40286;SDS011;25998;46.604;13.610;2022-07-15T06:13:48;13.60;;;7.82;;
40286;SDS011;25998;46.604;13.610;2022-07-15T06:16:59;11.60;;;7.00;;
40286;SDS011;25998;46.604;13.610;2022-07-15T06:20:11;7.32;;;6.63;;
40286;SDS011;25998;46.604;13.610;2022-07-15T06:23:22;6.40;;;5.80;;
40286;SDS011;25998;46.604;13.610;2022-07-15T06:26:33;7.18;;;5.38;;
40286;SDS011;25998;46.604;13.610;2022-07-15T06:29:44;7.78;;;6.15;;
40286;SDS011;25998;46.604;13.610;2022-07-15T06:32:54;6.50;;;5.90;;
40286;SDS011;25998;46.604;13.610;2022-07-15T06:36:05;6.53;;;5.72;;
40286;SDS011;25998;46.604;13.610;2022-07-15T06:39:16;8.05;;;6.38;;
40286;SDS011;25998;46.604;13.610;2022-07-15T06:42:27;8.32;;;6.28;;
40286;SDS011;25998;46.604;13.610;2022-07-15T06:45:38;10.70;;;6.47;;
40286;SDS011;25998;46.604;13.610;2022-07-15T06:48:49;7.35;;;6.50;;
40286;SDS011;25998;46.604;13.610;2022-07-15T06:52:00;6.32;;;5.78;;
40286;SDS011;25998;46.604;13.610;2022-07-15T06:55:11;6.47;;;5.90;;
40286;SDS011;25998;46.604;13.610;2022-07-15T06:58:22;6.72;;;5.90;;
40286;SDS011;25998;46.604;13.610;2022-07-15T07:01:34;6.50;;;5.88;;
40286;SDS011;25998;46.604;13.610;2022-07-15T07:04:44;6.13;;;5.57;;
40286;SDS011;25998;46.604;13.610;2022-07-15T07:07:55;6.78;;;6.18;;
40286;SDS011;25998;46.604;13.610;2022-07-15T07:11:08;6.75;;;5.70;;
40286;SDS011;25998;46.604;13.610;2022-07-15T07:14:21;6.35;;;5.75;;
40286;SDS011;25998;46.604;13.610;2022-07-15T07:17:32;6.38;;;5.68;;
40286;SDS011;25998;46.604;13.610;2022-07-15T07:20:43;6.45;;;5.75;;
40286;SDS011;25998;46.604;13.610;2022-07-15T07:23:54;6.05;;;5.55;;
40286;SDS011;25998;46.604;13.610;2022-07-15T07:27:05;6.95;;;5.95;;
40286;SDS011;25998;46.604;13.610;2022-07-15T07:30:16;6.80;;;5.30;;
40286;SDS011;25998;46.604;13.610;2022-07-15T07:33:27;5.90;;;5.40;;
40286;SDS011;25998;46.604;13.610;2022-07-15T07:36:38;7.53;;;5.20;;
40286;SDS011;25998;46.604;13.610;2022-07-15T07:39:49;5.93;;;5.43;;
40286;SDS011;25998;46.604;13.610;2022-07-15T07:43:00;7.05;;;5.80;;
40286;SDS011;25998;46.604;13.610;2022-07-15T07:46:11;6.18;;;5.65;;
40286;SDS011;25998;46.604;13.610;2022-07-15T07:49:22;8.82;;;5.47;;
40286;SDS011;25998;46.604;13.610;2022-07-15T07:52:36;5.85;;;5.35;;
40286;SDS011;25998;46.604;13.610;2022-07-15T07:55:48;7.40;;;5.07;;
40286;SDS011;25998;46.604;13.610;2022-07-15T07:58:59;5.72;;;5.15;;
40286;SDS011;25998;46.604;13.610;2022-07-15T08:02:10;6.45;;;5.70;;
40286;SDS011;25998;46.604;13.610;2022-07-15T08:05:21;6.25;;;5.57;;
40286;SDS011;25998;46.604;13.610;2022-07-15T08:08:32;5.88;;;5.38;;
40286;SDS011;25998;46.604;13.610;2022-07-15T08:11:43;6.95;;;5.60;;
40286;SDS011;25998;46.604;13.610;2022-07-15T08:14:55;6.72;;;5.88;;
40286;SDS011;25998;46.604;13.610;2022-07-15T08:18:06;5.93;;;5.10;;
40286;SDS011;25998;46.604;13.610;2022-07-15T08:21:17;6.93;;;5.50;;
40286;SDS011;25998;46.604;13.610;2022-07-15T08:24:31;5.95;;;5.40;;
40286;SDS011;25998;46.604;13.610;2022-07-15T08:27:44;7.63;;;5.30;;
40286;SDS011;25998;46.604;13.610;2022-07-15T08:30:55;7.80;;;5.43;;
40286;SDS011;25998;46.604;13.610;2022-07-15T08:34:06;6.95;;;4.93;;
40286;SDS011;25998;46.604;13.610;2022-07-15T08:37:18;6.90;;;5.50;;
40286;SDS011;25998;46.604;13.610;2022-07-15T08:40:28;7.00;;;4.72;;
40286;SDS011;25998;46.604;13.610;2022-07-15T08:43:39;5.63;;;5.13;;
40286;SDS011;25998;46.604;13.610;2022-07-15T08:46:50;6.95;;;5.65;;
40286;SDS011;25998;46.604;13.610;2022-07-15T08:50:05;6.80;;;5.45;;
40286;SDS011;25998;46.604;13.610;2022-07-15T08:53:18;5.63;;;5.00;;
40286;SDS011;25998;46.604;13.610;2022-07-15T08:56:31;5.47;;;4.97;;
40286;SDS011;25998;46.604;13.610;2022-07-15T08:59:44;7.80;;;5.68;;
40286;SDS011;25998;46.604;13.610;2022-07-15T09:02:57;6.10;;;5.50;;
40286;SDS011;25998;46.604;13.610;2022-07-15T09:06:10;5.75;;;4.80;;
40286;SDS011;25998;46.604;13.610;2022-07-15T09:09:47;5.32;;;4.82;;
40286;SDS011;25998;46.604;13.610;2022-07-15T09:12:57;5.03;;;4.55;;
40286;SDS011;25998;46.604;13.610;2022-07-15T09:16:09;6.38;;;4.82;;
40286;SDS011;25998;46.604;13.610;2022-07-15T09:19:29;7.70;;;5.93;;
40286;SDS011;25998;46.604;13.610;2022-07-15T09:23:00;5.80;;;5.20;;
40286;SDS011;25998;46.604;13.610;2022-07-15T09:29:49;5.80;;;4.72;;
40286;SDS011;25998;46.604;13.610;2022-07-15T09:33:19;5.43;;;4.93;;
40286;SDS011;25998;46.604;13.610;2022-07-15T09:36:49;5.10;;;4.63;;
40286;SDS011;25998;46.604;13.610;2022-07-15T09:40:04;6.63;;;4.75;;
40286;SDS011;25998;46.604;13.610;2022-07-15T09:43:15;4.82;;;4.32;;
40286;SDS011;25998;46.604;13.610;2022-07-15T09:46:38;6.65;;;4.28;;
40286;SDS011;25998;46.604;13.610;2022-07-15T09:49:55;5.93;;;4.60;;
40286;SDS011;25998;46.604;13.610;2022-07-15T09:53:13;4.65;;;4.15;;
40286;SDS011;25998;46.604;13.610;2022-07-15T09:56:24;4.65;;;4.25;;
40286;SDS011;25998;46.604;13.610;2022-07-15T09:59:36;7.03;;;4.10;;
40286;SDS011;25998;46.604;13.610;2022-07-15T10:02:47;5.63;;;4.00;;
40286;SDS011;25998;46.604;13.610;2022-07-15T10:05:58;6.53;;;3.95;;
40286;SDS011;25998;46.604;13.610;2022-07-15T10:09:12;4.78;;;3.60;;
40286;SDS011;25998;46.604;13.610;2022-07-15T10:12:23;3.67;;;3.03;;
40286;SDS011;25998;46.604;13.610;2022-07-15T10:15:42;5.28;;;3.28;;
40286;SDS011;25998;46.604;13.610;2022-07-15T10:19:23;5.28;;;3.53;;
40286;SDS011;25998;46.604;13.610;2022-07-15T10:29:43;6.15;;;3.63;;
40286;SDS011;25998;46.604;13.610;2022-07-15T10:36:26;6.22;;;3.90;;
40286;SDS011;25998;46.604;13.610;2022-07-15T10:39:58;6.82;;;3.42;;
40286;SDS011;25998;46.604;13.610;2022-07-15T10:43:16;4.35;;;3.45;;
40286;SDS011;25998;46.604;13.610;2022-07-15T10:46:28;3.88;;;3.45;;
40286;SDS011;25998;46.604;13.610;2022-07-15T10:49:40;3.60;;;3.30;;
40286;SDS011;25998;46.604;13.610;2022-07-15T10:53:13;16.33;;;4.32;;
40286;SDS011;25998;46.604;13.610;2022-07-15T10:56:35;5.00;;;3.58;;
40286;SDS011;25998;46.604;13.610;2022-07-15T11:06:18;4.57;;;3.55;;
40286;SDS011;25998;46.604;13.610;2022-07-15T11:09:48;4.30;;;3.58;;
40286;SDS011;25998;46.604;13.610;2022-07-15T11:13:02;3.55;;;3.13;;
40286;SDS011;25998;46.604;13.610;2022-07-15T11:16:15;6.35;;;3.70;;
40286;SDS011;25998;46.604;13.610;2022-07-15T11:19:27;3.88;;;3.30;;
40286;SDS011;25998;46.604;13.610;2022-07-15T11:22:42;5.57;;;3.88;;
40286;SDS011;25998;46.604;13.610;2022-07-15T11:25:58;3.90;;;3.55;;
40286;SDS011;25998;46.604;13.610;2022-07-15T11:29:09;9.90;;;4.25;;
40286;SDS011;25998;46.604;13.610;2022-07-15T11:32:21;5.40;;;3.80;;
40286;SDS011;25998;46.604;13.610;2022-07-15T11:35:41;5.68;;;3.90;;
40286;SDS011;25998;46.604;13.610;2022-07-15T11:38:56;6.13;;;3.60;;
40286;SDS011;25998;46.604;13.610;2022-07-15T11:42:16;5.07;;;3.75;;
40286;SDS011;25998;46.604;13.610;2022-07-15T11:45:51;6.70;;;4.00;;
40286;SDS011;25998;46.604;13.610;2022-07-15T11:49:01;5.65;;;4.00;;
40286;SDS011;25998;46.604;13.610;2022-07-15T11:52:24;4.07;;;3.67;;
40286;SDS011;25998;46.604;13.610;2022-07-15T11:55:51;5.50;;;4.50;;
40286;SDS011;25998;46.604;13.610;2022-07-15T11:59:06;7.60;;;4.40;;
40286;SDS011;25998;46.604;13.610;2022-07-15T12:02:18;5.40;;;4.38;;
40286;SDS011;25998;46.604;13.610;2022-07-15T12:05:29;5.13;;;4.45;;
40286;SDS011;25998;46.604;13.610;2022-07-15T12:11:54;8.18;;;4.95;;
40286;SDS011;25998;46.604;13.610;2022-07-15T12:15:12;6.45;;;4.63;;
40286;SDS011;25998;46.604;13.610;2022-07-15T12:18:23;4.90;;;4.22;;
40286;SDS011;25998;46.604;13.610;2022-07-15T12:21:37;5.75;;;4.45;;
40286;SDS011;25998;46.604;13.610;2022-07-15T12:24:50;7.32;;;4.50;;
40286;SDS011;25998;46.604;13.610;2022-07-15T12:28:02;6.88;;;4.72;;
40286;SDS011;25998;46.604;13.610;2022-07-15T12:31:13;7.68;;;4.45;;
40286;SDS011;25998;46.604;13.610;2022-07-15T12:34:49;5.22;;;4.53;;
40286;SDS011;25998;46.604;13.610;2022-07-15T12:38:02;6.07;;;4.78;;
40286;SDS011;25998;46.604;13.610;2022-07-15T12:41:24;5.68;;;4.30;;
40286;SDS011;25998;46.604;13.610;2022-07-15T12:44:35;4.85;;;4.30;;
40286;SDS011;25998;46.604;13.610;2022-07-15T12:48:04;4.97;;;4.03;;
40286;SDS011;25998;46.604;13.610;2022-07-15T12:51:23;4.70;;;4.20;;
40286;SDS011;25998;46.604;13.610;2022-07-15T12:54:35;4.45;;;3.75;;
40286;SDS011;25998;46.604;13.610;2022-07-15T12:57:46;8.52;;;4.00;;
40286;SDS011;25998;46.604;13.610;2022-07-15T13:01:05;5.78;;;4.15;;
40286;SDS011;25998;46.604;13.610;2022-07-15T13:04:20;4.55;;;3.78;;
40286;SDS011;25998;46.604;13.610;2022-07-15T13:07:31;11.52;;;5.38;;
40286;SDS011;25998;46.604;13.610;2022-07-15T13:10:43;4.63;;;3.60;;
40286;SDS011;25998;46.604;13.610;2022-07-15T13:13:57;5.20;;;3.80;;
40286;SDS011;25998;46.604;13.610;2022-07-15T13:17:08;10.30;;;4.50;;
40286;SDS011;25998;46.604;13.610;2022-07-15T13:20:19;8.07;;;4.90;;
40286;SDS011;25998;46.604;13.610;2022-07-15T13:23:30;7.63;;;5.13;;
40286;SDS011;25998;46.604;13.610;2022-07-15T13:26:41;8.70;;;5.20;;
40286;SDS011;25998;46.604;13.610;2022-07-15T13:29:54;10.23;;;5.00;;
40286;SDS011;25998;46.604;13.610;2022-07-15T13:33:05;6.93;;;4.78;;
40286;SDS011;25998;46.604;13.610;2022-07-15T13:36:16;5.60;;;5.00;;
40286;SDS011;25998;46.604;13.610;2022-07-15T13:39:27;6.38;;;5.20;;
40286;SDS011;25998;46.604;13.610;2022-07-15T13:42:39;5.60;;;4.50;;
40286;SDS011;25998;46.604;13.610;2022-07-15T13:45:50;8.45;;;5.00;;
40286;SDS011;25998;46.604;13.610;2022-07-15T13:49:01;7.13;;;5.45;;
40286;SDS011;25998;46.604;13.610;2022-07-15T13:52:12;6.13;;;5.03;;
40286;SDS011;25998;46.604;13.610;2022-07-15T13:55:24;5.72;;;4.90;;
40286;SDS011;25998;46.604;13.610;2022-07-15T13:58:35;5.82;;;5.15;;
40286;SDS011;25998;46.604;13.610;2022-07-15T14:01:46;5.50;;;5.00;;
40286;SDS011;25998;46.604;13.610;2022-07-15T14:04:57;5.70;;;5.07;;
40286;SDS011;25998;46.604;13.610;2022-07-15T14:08:08;5.30;;;4.28;;
40286;SDS011;25998;46.604;13.610;2022-07-15T14:11:19;6.43;;;4.90;;
40286;SDS011;25998;46.604;13.610;2022-07-15T14:14:30;5.95;;;4.68;;
40286;SDS011;25998;46.604;13.610;2022-07-15T14:17:41;4.85;;;4.35;;
40286;SDS011;25998;46.604;13.610;2022-07-15T14:20:58;4.70;;;4.25;;
40286;SDS011;25998;46.604;13.610;2022-07-15T14:24:11;5.45;;;4.60;;
40286;SDS011;25998;46.604;13.610;2022-07-15T14:27:22;5.95;;;4.82;;
40286;SDS011;25998;46.604;13.610;2022-07-15T14:30:33;8.95;;;5.05;;
40286;SDS011;25998;46.604;13.610;2022-07-15T14:33:46;5.88;;;5.20;;
40286;SDS011;25998;46.604;13.610;2022-07-15T14:36:59;6.35;;;5.10;;
40286;SDS011;25998;46.604;13.610;2022-07-15T14:40:10;5.22;;;4.70;;
40286;SDS011;25998;46.604;13.610;2022-07-15T14:43:26;5.05;;;4.45;;
40286;SDS011;25998;46.604;13.610;2022-07-15T14:46:43;4.95;;;4.45;;
40286;SDS011;25998;46.604;13.610;2022-07-15T14:49:56;5.57;;;4.72;;
40286;SDS011;25998;46.604;13.610;2022-07-15T14:53:10;6.53;;;4.38;;
40286;SDS011;25998;46.604;13.610;2022-07-15T14:56:20;6.22;;;4.25;;
40286;SDS011;25998;46.604;13.610;2022-07-15T14:59:31;4.90;;;4.18;;
40286;SDS011;25998;46.604;13.610;2022-07-15T15:02:47;4.68;;;4.25;;
40286;SDS011;25998;46.604;13.610;2022-07-15T15:06:05;5.13;;;3.85;;
40286;SDS011;25998;46.604;13.610;2022-07-15T15:09:16;6.03;;;4.22;;
40286;SDS011;25998;46.604;13.610;2022-07-15T15:12:29;5.35;;;4.00;;
40286;SDS011;25998;46.604;13.610;2022-07-15T15:15:43;4.60;;;4.10;;
40286;SDS011;25998;46.604;13.610;2022-07-15T15:18:54;13.88;;;5.65;;
40286;SDS011;25998;46.604;13.610;2022-07-15T15:22:05;8.38;;;5.68;;
40286;SDS011;25998;46.604;13.610;2022-07-15T15:25:16;15.05;;;7.30;;
40286;SDS011;25998;46.604;13.610;2022-07-15T15:28:47;11.63;;;7.00;;
40286;SDS011;25998;46.604;13.610;2022-07-15T15:31:59;9.45;;;6.47;;
40286;SDS011;25998;46.604;13.610;2022-07-15T15:35:10;6.60;;;5.57;;
40286;SDS011;25998;46.604;13.610;2022-07-15T15:38:21;5.80;;;5.20;;
40286;SDS011;25998;46.604;13.610;2022-07-15T15:41:32;6.03;;;5.28;;
40286;SDS011;25998;46.604;13.610;2022-07-15T15:44:43;6.03;;;5.35;;
40286;SDS011;25998;46.604;13.610;2022-07-15T15:47:54;5.97;;;5.38;;
40286;SDS011;25998;46.604;13.610;2022-07-15T15:51:05;6.43;;;5.80;;
40286;SDS011;25998;46.604;13.610;2022-07-15T15:54:16;6.40;;;5.50;;
40286;SDS011;25998;46.604;13.610;2022-07-15T15:57:28;6.53;;;5.53;;
40286;SDS011;25998;46.604;13.610;2022-07-15T16:00:39;5.40;;;4.90;;
40286;SDS011;25998;46.604;13.610;2022-07-15T16:03:50;6.15;;;4.68;;
40286;SDS011;25998;46.604;13.610;2022-07-15T16:07:01;6.40;;;5.80;;
40286;SDS011;25998;46.604;13.610;2022-07-15T16:10:13;8.13;;;5.25;;
40286;SDS011;25998;46.604;13.610;2022-07-15T16:13:24;5.40;;;4.90;;
40286;SDS011;25998;46.604;13.610;2022-07-15T16:16:34;5.22;;;4.72;;
40286;SDS011;25998;46.604;13.610;2022-07-15T16:19:46;5.97;;;4.93;;
40286;SDS011;25998;46.604;13.610;2022-07-15T16:22:56;6.85;;;6.25;;
40286;SDS011;25998;46.604;13.610;2022-07-15T16:26:09;7.03;;;6.40;;
40286;SDS011;25998;46.604;13.610;2022-07-15T16:29:19;6.03;;;5.47;;
40286;SDS011;25998;46.604;13.610;2022-07-15T16:32:30;5.60;;;5.10;;
40286;SDS011;25998;46.604;13.610;2022-07-15T16:35:41;8.15;;;5.60;;
40286;SDS011;25998;46.604;13.610;2022-07-15T16:38:52;6.60;;;5.30;;
40286;SDS011;25998;46.604;13.610;2022-07-15T16:42:03;5.70;;;4.97;;
40286;SDS011;25998;46.604;13.610;2022-07-15T16:45:14;5.93;;;5.30;;
40286;SDS011;25998;46.604;13.610;2022-07-15T16:48:26;6.97;;;6.38;;
40286;SDS011;25998;46.604;13.610;2022-07-15T16:51:36;7.45;;;6.75;;
40286;SDS011;25998;46.604;13.610;2022-07-15T16:54:47;6.30;;;5.68;;
40286;SDS011;25998;46.604;13.610;2022-07-15T16:57:58;6.45;;;5.38;;
40286;SDS011;25998;46.604;13.610;2022-07-15T17:01:09;6.32;;;5.80;;
40286;SDS011;25998;46.604;13.610;2022-07-15T17:04:20;7.45;;;6.40;;
40286;SDS011;25998;46.604;13.610;2022-07-15T17:07:33;7.47;;;6.68;;
40286;SDS011;25998;46.604;13.610;2022-07-15T17:10:44;7.38;;;6.78;;
40286;SDS011;25998;46.604;13.610;2022-07-15T17:13:55;6.18;;;5.65;;
40286;SDS011;25998;46.604;13.610;2022-07-15T17:17:05;6.22;;;5.65;;
40286;SDS011;25998;46.604;13.610;2022-07-15T17:20:16;8.00;;;6.22;;
40286;SDS011;25998;46.604;13.610;2022-07-15T17:23:28;6.32;;;5.50;;
40286;SDS011;25998;46.604;13.610;2022-07-15T17:26:40;7.10;;;6.40;;
40286;SDS011;25998;46.604;13.610;2022-07-15T17:29:50;7.55;;;6.57;;
40286;SDS011;25998;46.604;13.610;2022-07-15T17:33:01;7.20;;;6.00;;
40286;SDS011;25998;46.604;13.610;2022-07-15T17:36:12;7.10;;;6.50;;
40286;SDS011;25998;46.604;13.610;2022-07-15T17:39:23;7.05;;;5.68;;
40286;SDS011;25998;46.604;13.610;2022-07-15T17:42:34;6.20;;;5.60;;
40286;SDS011;25998;46.604;13.610;2022-07-15T17:45:45;6.32;;;5.63;;
40286;SDS011;25998;46.604;13.610;2022-07-15T17:48:56;6.20;;;5.70;;
40286;SDS011;25998;46.604;13.610;2022-07-15T17:52:07;6.50;;;5.82;;
40286;SDS011;25998;46.604;13.610;2022-07-15T17:55:18;6.40;;;5.80;;
40286;SDS011;25998;46.604;13.610;2022-07-15T17:58:29;6.60;;;6.00;;
40286;SDS011;25998;46.604;13.610;2022-07-15T18:01:39;6.72;;;5.82;;
40286;SDS011;25998;46.604;13.610;2022-07-15T18:04:50;6.18;;;5.50;;
40286;SDS011;25998;46.604;13.610;2022-07-15T18:08:01;8.18;;;5.70;;
40286;SDS011;25998;46.604;13.610;2022-07-15T18:11:14;7.25;;;6.55;;
40286;SDS011;25998;46.604;13.610;2022-07-15T18:14:25;6.85;;;6.28;;
40286;SDS011;25998;46.604;13.610;2022-07-15T18:17:39;6.60;;;6.00;;
40286;SDS011;25998;46.604;13.610;2022-07-15T18:20:50;6.57;;;5.95;;
40286;SDS011;25998;46.604;13.610;2022-07-15T18:24:01;6.13;;;5.38;;
40286;SDS011;25998;46.604;13.610;2022-07-15T18:27:12;6.03;;;5.50;;
40286;SDS011;25998;46.604;13.610;2022-07-15T18:30:23;6.63;;;6.03;;
40286;SDS011;25998;46.604;13.610;2022-07-15T18:33:34;7.63;;;6.80;;
40286;SDS011;25998;46.604;13.610;2022-07-15T18:36:45;6.60;;;6.00;;
40286;SDS011;25998;46.604;13.610;2022-07-15T18:39:56;6.82;;;6.18;;
40286;SDS011;25998;46.604;13.610;2022-07-15T18:43:07;7.28;;;6.65;;
40286;SDS011;25998;46.604;13.610;2022-07-15T18:46:18;6.70;;;6.03;;
40286;SDS011;25998;46.604;13.610;2022-07-15T18:49:29;6.80;;;6.13;;
40286;SDS011;25998;46.604;13.610;2022-07-15T18:52:40;6.10;;;5.50;;
40286;SDS011;25998;46.604;13.610;2022-07-15T18:55:51;6.78;;;5.85;;
40286;SDS011;25998;46.604;13.610;2022-07-15T18:59:02;5.63;;;5.00;;
40286;SDS011;25998;46.604;13.610;2022-07-15T19:02:13;7.07;;;5.43;;
40286;SDS011;25998;46.604;13.610;2022-07-15T19:05:24;6.65;;;6.03;;
40286;SDS011;25998;46.604;13.610;2022-07-15T19:08:35;7.53;;;5.45;;
40286;SDS011;25998;46.604;13.610;2022-07-15T19:11:46;7.07;;;5.50;;
40286;SDS011;25998;46.604;13.610;2022-07-15T19:14:57;5.65;;;5.03;;
40286;SDS011;25998;46.604;13.610;2022-07-15T19:18:08;6.93;;;6.15;;
40286;SDS011;25998;46.604;13.610;2022-07-15T19:21:19;7.88;;;7.03;;
40286;SDS011;25998;46.604;13.610;2022-07-15T19:24:30;7.25;;;6.45;;